Maritime — WCZ5279 — position and weather

sailwx.info

Track history (hours):
 
Tides and Currents Weather Stations Pressure Air Temp Water Temp Dewpoint Dewpoint Depression Visibility Wind Speed Wind Dir Waves Ship Positions

Maritime

Owner: ERGON MARINE & INDUSTRIAL SUPPLY, VICKSBURG, MS. More information available from US FCC via Universal Licensing System.

Last reported at 2017-Jul-24 22:30 UTC. Time now 2017-Jul-24 22:38 UTC.
Position N 32°20' W 090°54'.

; draft 3 m.

Type: Towing. MMSI: 367327920.

Date/timePositionNaut miles runAvg speedWind from/ knotsBaromVisibWave heightAir tempDewpointWater temp
2017-Jul-24 22:30N 32°20' W 090°54'0 0.0
2017-Jul-24 22:00N 32°20' W 090°54'1 2.8
2017-Jul-24 21:31N 32°21' W 090°53'2 4.0
2017-Jul-24 21:00N 32°23' W 090°53'0 0.7
2017-Jul-24 20:31N 32°23' W 090°53'1 2.8
2017-Jul-24 20:01N 32°22' W 090°53'2 4.4
2017-Jul-24 19:30N 32°23' W 090°55'0 0.6
2017-Jul-24 19:00N 32°24' W 090°55'2 3.8
2017-Jul-24 18:30N 32°22' W 090°53'1 1.5
2017-Jul-24 18:01N 32°22' W 090°53'2 3.3
2017-Jul-24 17:30N 32°20' W 090°54'3 5.3
2017-Jul-24 17:01N 32°21' W 090°57'0 0.3
2017-Jul-24 16:30N 32°21' W 090°57'0 0.3
2017-Jul-24 16:00N 32°21' W 090°57'4 1.4
2017-Jul-24 13:00N 32°23' W 090°53'1 1.1
2017-Jul-24 12:30N 32°23' W 090°53'3 5.7
2017-Jul-24 12:00N 32°20' W 090°54'0 0.9
2017-Jul-24 11:31N 32°20' W 090°54'0 0.0
2017-Jul-24 11:00N 32°20' W 090°54'2 3.1
2017-Jul-24 10:30N 32°18' W 090°55'0 1.0
2017-Jul-24 10:01N 32°18' W 090°55'0 0.0
2017-Jul-24 09:31N 32°18' W 090°55'0 0.6
2017-Jul-24 09:01N 32°18' W 090°55'2 4.3
2017-Jul-24 08:31N 32°20' W 090°54'3 5.2
2017-Jul-24 08:01N 32°22' W 090°53'1 2.9
2017-Jul-24 07:30N 32°23' W 090°53'0 0.1
2017-Jul-24 07:00N 32°23' W 090°53'0 0.0
2017-Jul-24 06:30N 32°23' W 090°53'0 0.0
2017-Jul-24 06:01N 32°23' W 090°53'0 0.0
2017-Jul-24 05:30N 32°23' W 090°53'0 0.0
2017-Jul-24 05:01N 32°23' W 090°53'0 0.0
2017-Jul-24 04:30N 32°23' W 090°53'0 0.0
2017-Jul-24 04:00N 32°23' W 090°53'0 0.0
2017-Jul-24 03:30N 32°23' W 090°53'0 0.0
2017-Jul-24 03:00N 32°23' W 090°53'0 0.0
2017-Jul-24 02:30N 32°23' W 090°53'0 0.0
2017-Jul-24 02:00N 32°23' W 090°53'1 1.7
2017-Jul-24 01:31N 32°23' W 090°53'1 2.3
2017-Jul-24 01:01N 32°23' W 090°54'1 2.6
2017-Jul-24 00:30N 32°24' W 090°55'1 1.2
2017-Jul-24 00:00N 32°23' W 090°55'2 4.6
2017-Jul-23 23:31N 32°21' W 090°53'2 3.3
2017-Jul-23 23:00N 32°20' W 090°54'0 0.0
2017-Jul-23 22:30N 32°20' W 090°54'0 0.0
2017-Jul-23 22:00N 32°20' W 090°54'0 0.0
2017-Jul-23 21:30N 32°20' W 090°54'0 0.0
2017-Jul-23 21:00N 32°20' W 090°54'0 0.0
2017-Jul-23 20:30N 32°20' W 090°54'0 0.0
2017-Jul-23 20:00N 32°20' W 090°54'0 0.0
2017-Jul-23 19:30N 32°20' W 090°54'0 0.0
2017-Jul-23 19:00N 32°20' W 090°54'0 0.0
2017-Jul-23 18:30N 32°20' W 090°54'0 0.0
2017-Jul-23 18:00N 32°20' W 090°54'0 0.0
2017-Jul-23 17:30N 32°20' W 090°54'0 0.0
2017-Jul-23 17:00N 32°20' W 090°54'0 0.0
2017-Jul-23 16:30N 32°20' W 090°54'0 0.0
2017-Jul-23 16:00N 32°20' W 090°54'0 0.0
2017-Jul-23 15:30N 32°20' W 090°54'0 0.0
2017-Jul-23 15:00N 32°20' W 090°54'0 0.0
2017-Jul-23 14:30N 32°20' W 090°54'0 0.0
2017-Jul-23 14:00N 32°20' W 090°54'0 0.0
2017-Jul-23 13:30N 32°20' W 090°54'0 0.0
2017-Jul-23 13:00N 32°20' W 090°54'0 0.0
2017-Jul-23 12:30N 32°20' W 090°54'0 0.0
2017-Jul-23 12:00N 32°20' W 090°54'0 0.0
2017-Jul-23 11:30N 32°20' W 090°54'0 0.4
2017-Jul-23 11:00N 32°20' W 090°54'1 2.2
2017-Jul-23 10:30N 32°21' W 090°53'3 5.2
2017-Jul-23 10:00N 32°21' W 090°56'0 0.3
2017-Jul-23 09:30N 32°21' W 090°57'2 3.8
2017-Jul-23 09:00N 32°20' W 090°54'2 4.7
2017-Jul-23 08:30N 32°22' W 090°53'1 2.3
2017-Jul-23 08:00N 32°23' W 090°53'0 0.0
2017-Jul-23 07:30N 32°23' W 090°53'0 0.0
2017-Jul-23 07:00N 32°23' W 090°53'0 0.0
2017-Jul-23 06:30N 32°23' W 090°53'0 0.0
2017-Jul-23 06:00N 32°23' W 090°53'0 0.0
2017-Jul-23 05:30N 32°23' W 090°53'0 0.0
2017-Jul-23 05:00N 32°23' W 090°53'0 0.0
2017-Jul-23 04:30N 32°23' W 090°53'0 0.0
2017-Jul-23 04:00N 32°23' W 090°53'0 0.0
2017-Jul-23 03:30N 32°23' W 090°53'0 0.0
2017-Jul-23 03:00N 32°23' W 090°53'0 0.0
2017-Jul-23 02:30N 32°23' W 090°53'0 0.0
2017-Jul-23 02:00N 32°23' W 090°53'1 2.3
2017-Jul-23 01:30N 32°22' W 090°53'1 1.4
2017-Jul-23 01:00N 32°22' W 090°53'2 4.3
2017-Jul-23 00:30N 32°20' W 090°54'0 0.2
2017-Jul-23 00:00N 32°20' W 090°54'0 0.0
2017-Jul-22 23:30N 32°20' W 090°54'0 0.0
2017-Jul-22 23:00N 32°20' W 090°54'0 0.0
2017-Jul-22 22:30N 32°20' W 090°54'0 0.0
2017-Jul-22 22:01N 32°20' W 090°54'0 0.0
2017-Jul-22 21:30N 32°20' W 090°54'0 0.0
2017-Jul-22 21:01N 32°20' W 090°54'0 0.0
2017-Jul-22 20:30N 32°20' W 090°54'0 0.0
2017-Jul-22 20:01N 32°20' W 090°54'0 0.0
2017-Jul-22 19:31N 32°20' W 090°54'0 0.0
2017-Jul-22 19:01N 32°20' W 090°54'0 0.0
2017-Jul-22 18:31N 32°20' W 090°54'0 0.0
2017-Jul-22 18:00N 32°20' W 090°54'0 0.0
2017-Jul-22 17:31N 32°20' W 090°54'0 0.0
2017-Jul-22 17:01N 32°20' W 090°54'0 0.0
2017-Jul-22 16:31N 32°20' W 090°54'0 0.0
2017-Jul-22 16:01N 32°20' W 090°54'0 0.0
2017-Jul-22 15:31N 32°20' W 090°54'0 0.0
2017-Jul-22 15:01N 32°20' W 090°54'0 0.0
2017-Jul-22 14:01N 32°20' W 090°54'0 0.0
2017-Jul-22 13:31N 32°20' W 090°54'0 0.0
2017-Jul-22 13:00N 32°20' W 090°54'0 0.0
2017-Jul-22 12:31N 32°20' W 090°54'0 0.0
2017-Jul-22 12:01N 32°20' W 090°54'0 0.0
2017-Jul-22 11:31N 32°20' W 090°54'0 0.0
2017-Jul-22 11:01N 32°20' W 090°54'0 0.0
2017-Jul-22 10:30N 32°20' W 090°54'0 0.0
2017-Jul-22 10:00N 32°20' W 090°54'0 0.0
2017-Jul-22 09:30N 32°20' W 090°54'0 0.0
2017-Jul-22 09:01N 32°20' W 090°54'1 1.3
2017-Jul-22 08:30N 32°19' W 090°54'1 2.0
2017-Jul-22 08:00N 32°18' W 090°55'0 0.9
2017-Jul-22 07:30N 32°19' W 090°54'3 6.3
2017-Jul-22 07:01N 32°21' W 090°53'2 3.5
2017-Jul-22 06:30N 32°23' W 090°53'0 0.0
2017-Jul-22 06:00N 32°23' W 090°53'0 0.0
2017-Jul-22 05:31N 32°23' W 090°53'0 0.0
2017-Jul-22 05:01N 32°23' W 090°53'0 0.0
2017-Jul-22 04:30N 32°23' W 090°53'0 0.0
2017-Jul-22 04:01N 32°23' W 090°53'0 0.0
2017-Jul-22 03:30N 32°23' W 090°53'0 0.0
2017-Jul-22 03:00N 32°23' W 090°53'0 0.0
2017-Jul-22 02:30N 32°23' W 090°53'0 0.0
2017-Jul-22 02:00N 32°23' W 090°53'0 0.0
2017-Jul-22 01:30N 32°23' W 090°53'0 0.2
2017-Jul-22 01:00N 32°23' W 090°53'0 0.1
2017-Jul-22 00:30N 32°23' W 090°54'2 4.3
2017-Jul-22 00:01N 32°21' W 090°53'2 3.1
2017-Jul-21 23:30N 32°20' W 090°54'0 0.0
2017-Jul-21 23:00N 32°20' W 090°54'0 0.0
2017-Jul-21 22:30N 32°20' W 090°54'2 3.6
2017-Jul-21 22:00N 32°21' W 090°53'0 0.8
2017-Jul-21 21:30N 32°22' W 090°53'1 2.2
2017-Jul-21 21:00N 32°21' W 090°53'4 8.6
2017-Jul-21 20:30N 32°21' W 090°59'1 1.3
2017-Jul-21 20:00N 32°21' W 090°58'2 4.4
2017-Jul-21 19:30N 32°21' W 090°55'2 3.7
2017-Jul-21 19:00N 32°21' W 090°53'2 3.9
2017-Jul-21 18:30N 32°23' W 090°53'3 5.3
2017-Jul-21 18:00N 32°21' W 090°54'1 2.0
2017-Jul-21 17:30N 32°20' W 090°54'0 0.0
2017-Jul-21 17:00N 32°20' W 090°54'1 1.2
2017-Jul-21 16:30N 32°20' W 090°54'1 3.0
2017-Jul-21 16:00N 32°21' W 090°53'2 4.8
2017-Jul-21 15:30N 32°23' W 090°55'0 0.4
2017-Jul-21 15:00N 32°24' W 090°55'0 0.1
2017-Jul-21 14:30N 32°23' W 090°55'1 1.9
2017-Jul-21 14:00N 32°23' W 090°54'2 3.3
2017-Jul-21 13:30N 32°21' W 090°53'3 5.0
2017-Jul-21 13:00N 32°19' W 090°54'1 2.8
2017-Jul-21 12:30N 32°18' W 090°55'0 0.3
2017-Jul-21 12:00N 32°18' W 090°55'0 0.1
2017-Jul-21 11:30N 32°18' W 090°55'0 0.1
2017-Jul-21 11:00N 32°18' W 090°55'0 0.1
2017-Jul-21 10:30N 32°18' W 090°55'0 0.1
2017-Jul-21 10:00N 32°18' W 090°55'0 0.0
2017-Jul-21 09:30N 32°18' W 090°55'1 1.0
2017-Jul-21 09:00N 32°18' W 090°55'0 0.1
2017-Jul-21 08:30N 32°18' W 090°55'3 5.3
2017-Jul-21 08:00N 32°21' W 090°53'1 2.0
2017-Jul-21 07:30N 32°21' W 090°53'2 4.8
2017-Jul-21 07:00N 32°19' W 090°54'1 2.8
2017-Jul-21 06:30N 32°18' W 090°55'3 6.1
2017-Jul-21 06:00N 32°21' W 090°53'1 1.7
2017-Jul-21 05:30N 32°22' W 090°53'0 0.4
2017-Jul-21 05:00N 32°22' W 090°53'2 4.9
2017-Jul-21 04:30N 32°24' W 090°55'0 0.2
2017-Jul-21 04:00N 32°24' W 090°55'2 3.2
2017-Jul-21 03:30N 32°22' W 090°54'1 1.4
2017-Jul-21 03:00N 32°23' W 090°53'1 1.6
2017-Jul-21 02:30N 32°23' W 090°53'1 2.9
2017-Jul-21 02:00N 32°21' W 090°53'1 2.9
2017-Jul-21 01:30N 32°20' W 090°54'3 7.0
2017-Jul-21 01:00N 32°21' W 090°58'0 0.3
2017-Jul-21 00:30N 32°21' W 090°58'2 4.2
2017-Jul-21 00:00N 32°21' W 090°56'2 4.3
2017-Jul-20 23:30N 32°20' W 090°54'0 0.4
2017-Jul-20 23:00N 32°20' W 090°54'2 3.4
2017-Jul-20 22:30N 32°21' W 090°53'2 4.1
2017-Jul-20 22:00N 32°23' W 090°53'0 0.2
2017-Jul-20 21:30N 32°23' W 090°53'0 0.0
2017-Jul-20 21:00N 32°23' W 090°53'1 1.6
2017-Jul-20 20:30N 32°23' W 090°53'2 4.0
2017-Jul-20 20:00N 32°23' W 090°55'0 0.1
2017-Jul-20 19:30N 32°23' W 090°55'0 0.3
2017-Jul-20 19:00N 32°23' W 090°55'2 4.0
2017-Jul-20 18:30N 32°23' W 090°52'1 1.2
2017-Jul-20 18:00N 32°22' W 090°53'0 0.0
2017-Jul-20 17:30N 32°22' W 090°53'0 0.5
2017-Jul-20 17:00N 32°22' W 090°53'1 1.4
2017-Jul-20 16:30N 32°23' W 090°53'0 0.8
2017-Jul-20 16:00N 32°23' W 090°53'1 1.2
2017-Jul-20 15:30N 32°23' W 090°54'0 0.9
2017-Jul-20 15:00N 32°23' W 090°54'0 0.1
2017-Jul-20 14:00N 32°23' W 090°54'0 0.2
2017-Jul-20 13:30N 32°23' W 090°54'0 0.3
2017-Jul-20 13:00N 32°23' W 090°54'0 0.5
2017-Jul-20 12:30N 32°23' W 090°53'0 0.1
2017-Jul-20 12:00N 32°23' W 090°53'2 4.9
2017-Jul-20 11:30N 32°21' W 090°53'1 2.5
2017-Jul-20 11:00N 32°20' W 090°54'0 0.0
2017-Jul-20 10:31N 32°20' W 090°54'2 3.2
2017-Jul-20 10:00N 32°21' W 090°53'1 1.2
2017-Jul-20 09:31N 32°22' W 090°53'0 0.0
2017-Jul-20 09:00N 32°22' W 090°53'1 1.8
2017-Jul-20 08:31N 32°22' W 090°53'1 2.6
2017-Jul-20 08:01N 32°23' W 090°54'0 0.0
2017-Jul-20 07:30N 32°23' W 090°54'0 0.0
2017-Jul-20 07:01N 32°23' W 090°54'0 0.0
2017-Jul-20 06:31N 32°23' W 090°54'0 0.4
2017-Jul-20 06:00N 32°23' W 090°54'1 1.2
2017-Jul-20 05:30N 32°23' W 090°53'0 0.0
2017-Jul-20 05:01N 32°23' W 090°53'1 1.8
2017-Jul-20 04:31N 32°22' W 090°53'0 0.0
2017-Jul-20 04:01N 32°22' W 090°53'1 1.0
2017-Jul-20 03:30N 32°22' W 090°53'2 3.2
2017-Jul-20 03:01N 32°20' W 090°54'0 0.1
2017-Jul-20 02:30N 32°21' W 090°54'1 1.9
2017-Jul-20 02:01N 32°20' W 090°54'0 0.0
2017-Jul-20 01:30N 32°20' W 090°54'0 0.0
2017-Jul-20 01:00N 32°20' W 090°54'0 0.0
2017-Jul-20 00:31N 32°20' W 090°54'0 0.0
2017-Jul-20 00:00N 32°20' W 090°54'0 0.0
2017-Jul-19 23:31N 32°20' W 090°54'0 0.0
2017-Jul-19 23:01N 32°20' W 090°54'1 1.1
2017-Jul-19 22:31N 32°20' W 090°54'2 3.0
2017-Jul-19 22:01N 32°21' W 090°53'0 0.3
2017-Jul-19 21:31N 32°22' W 090°53'1 1.3
2017-Jul-19 21:01N 32°22' W 090°53'1 2.4
2017-Jul-19 20:30N 32°23' W 090°53'0 0.0
2017-Jul-19 20:01N 32°23' W 090°53'0 0.0
2017-Jul-19 19:31N 32°23' W 090°53'0 0.1
2017-Jul-19 19:01N 32°23' W 090°53'1 1.7
2017-Jul-19 18:31N 32°23' W 090°54'1 2.0
2017-Jul-19 18:00N 32°23' W 090°55'0 0.4
2017-Jul-19 17:31N 32°23' W 090°55'2 3.7
2017-Jul-19 17:00N 32°22' W 090°53'2 3.4
2017-Jul-19 16:31N 32°21' W 090°53'3 5.1
2017-Jul-19 16:00N 32°21' W 090°56'0 0.7
2017-Jul-19 15:30N 32°21' W 090°57'0 0.1
2017-Jul-19 15:00N 32°21' W 090°57'0 0.1
2017-Jul-19 14:31N 32°21' W 090°57'1 2.3
2017-Jul-19 14:00N 32°21' W 090°56'2 4.1
2017-Jul-19 13:30N 32°21' W 090°53'2 3.8
2017-Jul-19 13:00N 32°23' W 090°53'1 1.1
2017-Jul-19 12:30N 32°23' W 090°53'2 3.4
2017-Jul-19 12:01N 32°22' W 090°53'2 3.4
2017-Jul-19 11:31N 32°20' W 090°54'1 1.1
2017-Jul-19 11:00N 32°20' W 090°54'0 0.0
2017-Jul-19 10:31N 32°20' W 090°54'2 4.1
2017-Jul-19 10:01N 32°21' W 090°53'0 0.0
2017-Jul-19 09:30N 32°21' W 090°53'0 0.0
2017-Jul-19 09:00N 32°21' W 090°53'0 0.0
2017-Jul-19 08:30N 32°21' W 090°53'0 0.0
2017-Jul-19 08:01N 32°21' W 090°53'0 0.0
2017-Jul-19 07:31N 32°21' W 090°53'0 0.0
2017-Jul-19 07:00N 32°21' W 090°53'0 0.1
2017-Jul-19 06:30N 32°22' W 090°53'2 3.1
2017-Jul-19 06:00N 32°23' W 090°53'1 1.4
2017-Jul-19 05:31N 32°23' W 090°54'0 0.5
2017-Jul-19 05:00N 32°23' W 090°53'0 0.0
2017-Jul-19 04:30N 32°23' W 090°53'0 0.0
2017-Jul-19 04:01N 32°23' W 090°53'0 0.0
2017-Jul-19 03:30N 32°23' W 090°53'0 0.0
2017-Jul-19 03:00N 32°23' W 090°53'0 0.0
2017-Jul-19 02:31N 32°23' W 090°53'0 0.0
2017-Jul-19 02:00N 32°23' W 090°53'0 0.0
2017-Jul-19 01:30N 32°23' W 090°53'0 0.2
2017-Jul-19 01:00N 32°23' W 090°53'1 2.7
2017-Jul-19 00:31N 32°22' W 090°53'1 1.2
2017-Jul-19 00:01N 32°21' W 090°53'2 3.3
2017-Jul-18 23:30N 32°20' W 090°54'0 0.7
2017-Jul-18 23:00N 32°20' W 090°54'0 0.0
2017-Jul-18 22:30N 32°20' W 090°54'0 0.0
2017-Jul-18 22:01N 32°20' W 090°54'2 3.4
2017-Jul-18 21:30N 32°21' W 090°53'2 3.6
2017-Jul-18 21:01N 32°23' W 090°53'1 1.2
2017-Jul-18 20:30N 32°23' W 090°53'0 0.0
2017-Jul-18 20:00N 32°23' W 090°53'0 0.0
2017-Jul-18 19:31N 32°23' W 090°53'1 1.5
2017-Jul-18 19:00N 32°23' W 090°53'1 1.3
2017-Jul-18 18:30N 32°22' W 090°53'1 1.4
2017-Jul-18 18:01N 32°23' W 090°52'1 2.0
2017-Jul-18 17:31N 32°23' W 090°53'0 0.8
2017-Jul-18 17:01N 32°23' W 090°54'1 1.8
2017-Jul-18 16:30N 32°23' W 090°53'0 0.2
2017-Jul-18 16:01N 32°23' W 090°53'1 1.4
2017-Jul-18 15:30N 32°22' W 090°53'0 0.7
2017-Jul-18 15:00N 32°22' W 090°53'0 0.2
2017-Jul-18 14:00N 32°22' W 090°53'1 1.2
2017-Jul-18 13:30N 32°23' W 090°54'1 2.2
2017-Jul-18 13:01N 32°23' W 090°55'2 4.6
2017-Jul-18 12:30N 32°22' W 090°53'0 0.4
2017-Jul-18 12:00N 32°21' W 090°53'2 3.3
2017-Jul-18 11:31N 32°20' W 090°54'0 0.9
2017-Jul-18 11:00N 32°20' W 090°54'1 2.7
2017-Jul-18 10:30N 32°21' W 090°53'1 2.9
2017-Jul-18 10:00N 32°22' W 090°53'0 0.7
2017-Jul-18 09:30N 32°22' W 090°53'0 0.0
2017-Jul-18 09:00N 32°22' W 090°53'0 0.0
2017-Jul-18 08:30N 32°22' W 090°53'0 0.0
2017-Jul-18 08:00N 32°22' W 090°53'0 0.0
2017-Jul-18 07:30N 32°22' W 090°53'0 0.0
2017-Jul-18 07:00N 32°22' W 090°53'0 0.0
2017-Jul-18 06:30N 32°22' W 090°53'0 0.0
2017-Jul-18 06:00N 32°22' W 090°53'0 0.0
2017-Jul-18 05:30N 32°22' W 090°53'0 0.0
2017-Jul-18 05:00N 32°22' W 090°53'0 0.0
2017-Jul-18 04:30N 32°22' W 090°53'0 0.2
2017-Jul-18 04:00N 32°23' W 090°53'2 3.4
2017-Jul-18 03:30N 32°24' W 090°55'2 4.6
2017-Jul-18 03:00N 32°22' W 090°53'1 1.7
2017-Jul-18 02:31N 32°23' W 090°53'0 0.7
2017-Jul-18 02:00N 32°23' W 090°53'0 0.2
2017-Jul-18 01:31N 32°23' W 090°53'2 3.6
2017-Jul-18 01:00N 32°21' W 090°53'3 5.1
2017-Jul-18 00:30N 32°19' W 090°54'1 2.5
2017-Jul-18 00:01N 32°18' W 090°55'0 0.0
2017-Jul-17 23:31N 32°18' W 090°55'2 3.8
2017-Jul-17 23:00N 32°20' W 090°54'1 2.0
2017-Jul-17 22:30N 32°21' W 090°54'2 3.5
2017-Jul-17 22:00N 32°22' W 090°53'0 0.0
2017-Jul-17 21:31N 32°22' W 090°53'1 2.7
2017-Jul-17 21:01N 32°23' W 090°54'0 0.2
2017-Jul-17 20:30N 32°23' W 090°54'0 0.8
2017-Jul-17 20:00N 32°23' W 090°53'0 0.0
2017-Jul-17 19:30N 32°23' W 090°53'0 0.0
2017-Jul-17 19:01N 32°23' W 090°53'0 0.0
2017-Jul-17 18:30N 32°23' W 090°53'0 0.0
2017-Jul-17 18:01N 32°23' W 090°53'0 0.0
2017-Jul-17 17:30N 32°23' W 090°53'0 0.0
2017-Jul-17 17:00N 32°23' W 090°53'0 0.2
2017-Jul-17 16:30N 32°23' W 090°53'0 1.0
2017-Jul-17 16:00N 32°23' W 090°53'1 1.9
2017-Jul-17 15:31N 32°23' W 090°54'1 1.0
2017-Jul-17 15:00N 32°23' W 090°53'0 0.1
2017-Jul-17 14:30N 32°23' W 090°53'0 0.0
2017-Jul-17 14:00N 32°23' W 090°53'0 0.6
2017-Jul-17 13:30N 32°23' W 090°53'1 1.6
2017-Jul-17 13:00N 32°22' W 090°53'0 0.4
2017-Jul-17 12:31N 32°22' W 090°53'1 1.4
2017-Jul-17 12:01N 32°22' W 090°53'2 4.2
2017-Jul-17 11:30N 32°20' W 090°54'0 0.7
2017-Jul-17 11:00N 32°20' W 090°54'1 2.5
2017-Jul-17 10:30N 32°21' W 090°53'1 1.5
2017-Jul-17 10:00N 32°21' W 090°53'0 0.0
2017-Jul-17 09:30N 32°21' W 090°53'0 0.0
2017-Jul-17 09:00N 32°21' W 090°53'0 0.0
2017-Jul-17 08:30N 32°21' W 090°53'0 0.0
2017-Jul-17 08:00N 32°21' W 090°53'0 0.0
2017-Jul-17 07:30N 32°21' W 090°53'0 0.0
2017-Jul-17 07:00N 32°21' W 090°53'0 0.6
2017-Jul-17 06:30N 32°21' W 090°53'1 2.3
2017-Jul-17 06:00N 32°20' W 090°54'1 1.7
2017-Jul-17 05:30N 32°21' W 090°53'2 4.6
2017-Jul-17 05:00N 32°23' W 090°53'0 0.3
2017-Jul-17 04:30N 32°23' W 090°53'2 3.3
2017-Jul-17 04:00N 32°22' W 090°53'2 3.6
2017-Jul-17 03:30N 32°23' W 090°54'1 2.6
2017-Jul-17 03:00N 32°22' W 090°52'1 2.1
2017-Jul-17 02:30N 32°23' W 090°53'0 0.9
2017-Jul-17 02:00N 32°23' W 090°53'0 0.4
2017-Jul-17 01:30N 32°23' W 090°53'1 1.4
2017-Jul-17 01:00N 32°22' W 090°53'0 0.0
2017-Jul-17 00:30N 32°22' W 090°53'1 2.4
2017-Jul-17 00:00N 32°23' W 090°54'2 4.5
2017-Jul-16 23:30N 32°21' W 090°53'2 3.1
2017-Jul-16 23:00N 32°20' W 090°54'0 0.0
2017-Jul-16 22:30N 32°20' W 090°54'0 0.0
2017-Jul-16 22:00N 32°20' W 090°54'0 0.0
2017-Jul-16 21:30N 32°20' W 090°54'0 0.0
2017-Jul-16 21:00N 32°20' W 090°54'0 0.0
2017-Jul-16 20:30N 32°20' W 090°54'0 0.0
2017-Jul-16 20:01N 32°20' W 090°54'0 0.0
2017-Jul-16 19:31N 32°20' W 090°54'0 0.0
2017-Jul-16 19:01N 32°20' W 090°54'0 0.0
2017-Jul-16 18:31N 32°20' W 090°54'2 3.4
2017-Jul-16 18:01N 32°21' W 090°53'2 3.8
2017-Jul-16 17:31N 32°23' W 090°53'0 0.0
2017-Jul-16 17:01N 32°23' W 090°53'0 0.0
2017-Jul-16 16:30N 32°23' W 090°53'0 0.0
2017-Jul-16 16:01N 32°23' W 090°53'0 0.0
2017-Jul-16 15:31N 32°23' W 090°53'0 0.0
2017-Jul-16 15:01N 32°23' W 090°53'0 0.2
2017-Jul-16 14:31N 32°23' W 090°53'0 0.0
2017-Jul-16 14:01N 32°23' W 090°53'1 2.2
2017-Jul-16 13:31N 32°23' W 090°54'2 3.5
2017-Jul-16 13:01N 32°22' W 090°53'1 2.7
2017-Jul-16 12:31N 32°21' W 090°54'1 2.0
2017-Jul-16 12:01N 32°20' W 090°54'0 0.0
2017-Jul-16 11:30N 32°20' W 090°54'2 4.7
2017-Jul-16 11:00N 32°22' W 090°53'1 3.0
2017-Jul-16 10:31N 32°23' W 090°53'0 0.0
2017-Jul-16 10:01N 32°23' W 090°53'2 3.4
2017-Jul-16 09:31N 32°22' W 090°53'3 5.3
2017-Jul-16 09:01N 32°19' W 090°54'1 2.4
2017-Jul-16 08:31N 32°18' W 090°55'0 0.1
2017-Jul-16 08:00N 32°18' W 090°55'0 0.0
2017-Jul-16 07:30N 32°18' W 090°55'2 4.0
2017-Jul-16 07:00N 32°20' W 090°54'3 5.5
2017-Jul-16 06:30N 32°22' W 090°53'1 2.2
2017-Jul-16 06:01N 32°23' W 090°53'0 0.1
2017-Jul-16 05:30N 32°23' W 090°53'2 3.6
2017-Jul-16 05:00N 32°21' W 090°53'1 2.9
2017-Jul-16 04:31N 32°20' W 090°54'2 4.4
2017-Jul-16 04:00N 32°21' W 090°57'0 0.3
2017-Jul-16 03:30N 32°21' W 090°57'0 0.2
2017-Jul-16 03:00N 32°21' W 090°57'0 0.5
2017-Jul-16 02:31N 32°21' W 090°56'0 0.1
2017-Jul-16 02:00N 32°21' W 090°56'2 3.7
2017-Jul-16 01:30N 32°20' W 090°54'2 3.1
2017-Jul-16 01:01N 32°22' W 090°53'0 0.1
2017-Jul-16 00:30N 32°21' W 090°53'0 0.0
2017-Jul-16 00:01N 32°21' W 090°53'2 3.9
2017-Jul-15 23:31N 32°20' W 090°54'1 2.6
2017-Jul-15 23:00N 32°21' W 090°53'2 4.5
2017-Jul-15 22:30N 32°23' W 090°53'1 1.5
2017-Jul-15 22:00N 32°23' W 090°54'0 0.1
2017-Jul-15 21:30N 32°23' W 090°54'0 0.6
2017-Jul-15 21:00N 32°23' W 090°53'0 0.0
2017-Jul-15 20:30N 32°23' W 090°53'0 0.0
2017-Jul-15 20:00N 32°23' W 090°53'0 0.0
2017-Jul-15 19:30N 32°23' W 090°53'0 0.0
2017-Jul-15 19:00N 32°23' W 090°53'0 0.0
2017-Jul-15 18:30N 32°23' W 090°53'0 0.0
2017-Jul-15 18:00N 32°23' W 090°53'0 0.0
2017-Jul-15 17:30N 32°23' W 090°53'0 0.0
2017-Jul-15 17:00N 32°23' W 090°53'0 0.0
2017-Jul-15 16:30N 32°23' W 090°53'0 0.0
2017-Jul-15 16:00N 32°23' W 090°53'0 0.0
2017-Jul-15 15:30N 32°23' W 090°53'0 0.0
2017-Jul-15 15:00N 32°23' W 090°53'0 0.0
2017-Jul-15 14:00N 32°23' W 090°53'0 0.0
2017-Jul-15 13:30N 32°23' W 090°53'0 0.0
2017-Jul-15 13:00N 32°23' W 090°53'0 0.8
2017-Jul-15 12:30N 32°23' W 090°53'2 3.5
2017-Jul-15 12:00N 32°21' W 090°53'2 3.7
2017-Jul-15 11:30N 32°20' W 090°54'0 0.0
2017-Jul-15 11:00N 32°20' W 090°54'0 0.0
2017-Jul-15 10:30N 32°20' W 090°54'0 0.1
2017-Jul-15 10:00N 32°20' W 090°54'2 4.1
2017-Jul-15 09:30N 32°21' W 090°53'0 0.0
2017-Jul-15 09:00N 32°21' W 090°53'0 0.0
2017-Jul-15 08:30N 32°21' W 090°53'0 0.0
2017-Jul-15 08:00N 32°21' W 090°53'0 0.0
2017-Jul-15 07:30N 32°21' W 090°53'0 0.0
2017-Jul-15 07:00N 32°21' W 090°53'0 0.0
2017-Jul-15 06:30N 32°21' W 090°53'0 0.0
2017-Jul-15 06:00N 32°21' W 090°53'0 0.0
2017-Jul-15 05:30N 32°21' W 090°53'0 0.0
2017-Jul-15 05:00N 32°21' W 090°53'0 0.0
2017-Jul-15 04:30N 32°21' W 090°53'0 0.0
2017-Jul-15 04:00N 32°21' W 090°53'0 0.0
2017-Jul-15 03:30N 32°21' W 090°53'1 1.3
2017-Jul-15 03:00N 32°21' W 090°53'2 4.8
2017-Jul-15 02:30N 32°19' W 090°55'1 2.6
2017-Jul-15 02:00N 32°18' W 090°56'0 0.3
2017-Jul-15 01:30N 32°18' W 090°56'0 0.3
2017-Jul-15 01:00N 32°18' W 090°56'4 7.4
2017-Jul-15 00:30N 32°21' W 090°53'1 2.0
2017-Jul-15 00:00N 32°22' W 090°53'1 1.2
2017-Jul-14 23:30N 32°21' W 090°53'2 3.3
2017-Jul-14 23:00N 32°20' W 090°54'  
Track history (hours):
 
Tides and Currents Weather Stations Pressure Air Temp Water Temp Dewpoint Dewpoint Depression Visibility Wind Speed Wind Dir Waves Ship Positions

Maritime

Owner: ERGON MARINE & INDUSTRIAL SUPPLY, VICKSBURG, MS. More information available from US FCC via Universal Licensing System.

Last reported at 2017-Jul-24 22:30 UTC. Time now 2017-Jul-24 22:38 UTC.
Position N 32°20' W 090°54'.

; draft 3 m.

Type: Towing. MMSI: 367327920.

Date/timePositionNaut miles runAvg speedWind from/ knotsBaromVisibWave heightAir tempDewpointWater temp
2017-Jul-24 22:30N 32°20' W 090°54'0 0.0
2017-Jul-24 22:00N 32°20' W 090°54'1 2.8
2017-Jul-24 21:31N 32°21' W 090°53'2 4.0
2017-Jul-24 21:00N 32°23' W 090°53'0 0.7
2017-Jul-24 20:31N 32°23' W 090°53'1 2.8
2017-Jul-24 20:01N 32°22' W 090°53'2 4.4
2017-Jul-24 19:30N 32°23' W 090°55'0 0.6
2017-Jul-24 19:00N 32°24' W 090°55'2 3.8
2017-Jul-24 18:30N 32°22' W 090°53'1 1.5
2017-Jul-24 18:01N 32°22' W 090°53'2 3.3
2017-Jul-24 17:30N 32°20' W 090°54'3 5.3
2017-Jul-24 17:01N 32°21' W 090°57'0 0.3
2017-Jul-24 16:30N 32°21' W 090°57'0 0.3
2017-Jul-24 16:00N 32°21' W 090°57'4 1.4
2017-Jul-24 13:00N 32°23' W 090°53'1 1.1
2017-Jul-24 12:30N 32°23' W 090°53'3 5.7
2017-Jul-24 12:00N 32°20' W 090°54'0 0.9
2017-Jul-24 11:31N 32°20' W 090°54'0 0.0
2017-Jul-24 11:00N 32°20' W 090°54'2 3.1
2017-Jul-24 10:30N 32°18' W 090°55'0 1.0
2017-Jul-24 10:01N 32°18' W 090°55'0 0.0
2017-Jul-24 09:31N 32°18' W 090°55'0 0.6
2017-Jul-24 09:01N 32°18' W 090°55'2 4.3
2017-Jul-24 08:31N 32°20' W 090°54'3 5.2
2017-Jul-24 08:01N 32°22' W 090°53'1 2.9
2017-Jul-24 07:30N 32°23' W 090°53'0 0.1
2017-Jul-24 07:00N 32°23' W 090°53'0 0.0
2017-Jul-24 06:30N 32°23' W 090°53'0 0.0
2017-Jul-24 06:01N 32°23' W 090°53'0 0.0
2017-Jul-24 05:30N 32°23' W 090°53'0 0.0
2017-Jul-24 05:01N 32°23' W 090°53'0 0.0
2017-Jul-24 04:30N 32°23' W 090°53'0 0.0
2017-Jul-24 04:00N 32°23' W 090°53'0 0.0
2017-Jul-24 03:30N 32°23' W 090°53'0 0.0
2017-Jul-24 03:00N 32°23' W 090°53'0 0.0
2017-Jul-24 02:30N 32°23' W 090°53'0 0.0
2017-Jul-24 02:00N 32°23' W 090°53'1 1.7
2017-Jul-24 01:31N 32°23' W 090°53'1 2.3
2017-Jul-24 01:01N 32°23' W 090°54'1 2.6
2017-Jul-24 00:30N 32°24' W 090°55'1 1.2
2017-Jul-24 00:00N 32°23' W 090°55'2 4.6
2017-Jul-23 23:31N 32°21' W 090°53'2 3.3
2017-Jul-23 23:00N 32°20' W 090°54'0 0.0
2017-Jul-23 22:30N 32°20' W 090°54'0 0.0
2017-Jul-23 22:00N 32°20' W 090°54'0 0.0
2017-Jul-23 21:30N 32°20' W 090°54'0 0.0
2017-Jul-23 21:00N 32°20' W 090°54'0 0.0
2017-Jul-23 20:30N 32°20' W 090°54'0 0.0
2017-Jul-23 20:00N 32°20' W 090°54'0 0.0
2017-Jul-23 19:30N 32°20' W 090°54'0 0.0
2017-Jul-23 19:00N 32°20' W 090°54'0 0.0
2017-Jul-23 18:30N 32°20' W 090°54'0 0.0
2017-Jul-23 18:00N 32°20' W 090°54'0 0.0
2017-Jul-23 17:30N 32°20' W 090°54'0 0.0
2017-Jul-23 17:00N 32°20' W 090°54'0 0.0
2017-Jul-23 16:30N 32°20' W 090°54'0 0.0
2017-Jul-23 16:00N 32°20' W 090°54'0 0.0
2017-Jul-23 15:30N 32°20' W 090°54'0 0.0
2017-Jul-23 15:00N 32°20' W 090°54'0 0.0
2017-Jul-23 14:30N 32°20' W 090°54'0 0.0
2017-Jul-23 14:00N 32°20' W 090°54'0 0.0
2017-Jul-23 13:30N 32°20' W 090°54'0 0.0
2017-Jul-23 13:00N 32°20' W 090°54'0 0.0
2017-Jul-23 12:30N 32°20' W 090°54'0 0.0
2017-Jul-23 12:00N 32°20' W 090°54'0 0.0
2017-Jul-23 11:30N 32°20' W 090°54'0 0.4
2017-Jul-23 11:00N 32°20' W 090°54'1 2.2
2017-Jul-23 10:30N 32°21' W 090°53'3 5.2
2017-Jul-23 10:00N 32°21' W 090°56'0 0.3
2017-Jul-23 09:30N 32°21' W 090°57'2 3.8
2017-Jul-23 09:00N 32°20' W 090°54'2 4.7
2017-Jul-23 08:30N 32°22' W 090°53'1 2.3
2017-Jul-23 08:00N 32°23' W 090°53'0 0.0
2017-Jul-23 07:30N 32°23' W 090°53'0 0.0
2017-Jul-23 07:00N 32°23' W 090°53'0 0.0
2017-Jul-23 06:30N 32°23' W 090°53'0 0.0
2017-Jul-23 06:00N 32°23' W 090°53'0 0.0
2017-Jul-23 05:30N 32°23' W 090°53'0 0.0
2017-Jul-23 05:00N 32°23' W 090°53'0 0.0
2017-Jul-23 04:30N 32°23' W 090°53'0 0.0
2017-Jul-23 04:00N 32°23' W 090°53'0 0.0
2017-Jul-23 03:30N 32°23' W 090°53'0 0.0
2017-Jul-23 03:00N 32°23' W 090°53'0 0.0
2017-Jul-23 02:30N 32°23' W 090°53'0 0.0
2017-Jul-23 02:00N 32°23' W 090°53'1 2.3
2017-Jul-23 01:30N 32°22' W 090°53'1 1.4
2017-Jul-23 01:00N 32°22' W 090°53'2 4.3
2017-Jul-23 00:30N 32°20' W 090°54'0 0.2
2017-Jul-23 00:00N 32°20' W 090°54'0 0.0
2017-Jul-22 23:30N 32°20' W 090°54'0 0.0
2017-Jul-22 23:00N 32°20' W 090°54'0 0.0
2017-Jul-22 22:30N 32°20' W 090°54'0 0.0
2017-Jul-22 22:01N 32°20' W 090°54'0 0.0
2017-Jul-22 21:30N 32°20' W 090°54'0 0.0
2017-Jul-22 21:01N 32°20' W 090°54'0 0.0
2017-Jul-22 20:30N 32°20' W 090°54'0 0.0
2017-Jul-22 20:01N 32°20' W 090°54'0 0.0
2017-Jul-22 19:31N 32°20' W 090°54'0 0.0
2017-Jul-22 19:01N 32°20' W 090°54'0 0.0
2017-Jul-22 18:31N 32°20' W 090°54'0 0.0
2017-Jul-22 18:00N 32°20' W 090°54'0 0.0
2017-Jul-22 17:31N 32°20' W 090°54'0 0.0
2017-Jul-22 17:01N 32°20' W 090°54'0 0.0
2017-Jul-22 16:31N 32°20' W 090°54'0 0.0
2017-Jul-22 16:01N 32°20' W 090°54'0 0.0
2017-Jul-22 15:31N 32°20' W 090°54'0 0.0
2017-Jul-22 15:01N 32°20' W 090°54'0 0.0
2017-Jul-22 14:01N 32°20' W 090°54'0 0.0
2017-Jul-22 13:31N 32°20' W 090°54'0 0.0
2017-Jul-22 13:00N 32°20' W 090°54'0 0.0
2017-Jul-22 12:31N 32°20' W 090°54'0 0.0
2017-Jul-22 12:01N 32°20' W 090°54'0 0.0
2017-Jul-22 11:31N 32°20' W 090°54'0 0.0
2017-Jul-22 11:01N 32°20' W 090°54'0 0.0
2017-Jul-22 10:30N 32°20' W 090°54'0 0.0
2017-Jul-22 10:00N 32°20' W 090°54'0 0.0
2017-Jul-22 09:30N 32°20' W 090°54'0 0.0
2017-Jul-22 09:01N 32°20' W 090°54'1 1.3
2017-Jul-22 08:30N 32°19' W 090°54'1 2.0
2017-Jul-22 08:00N 32°18' W 090°55'0 0.9
2017-Jul-22 07:30N 32°19' W 090°54'3 6.3
2017-Jul-22 07:01N 32°21' W 090°53'2 3.5
2017-Jul-22 06:30N 32°23' W 090°53'0 0.0
2017-Jul-22 06:00N 32°23' W 090°53'0 0.0
2017-Jul-22 05:31N 32°23' W 090°53'0 0.0
2017-Jul-22 05:01N 32°23' W 090°53'0 0.0
2017-Jul-22 04:30N 32°23' W 090°53'0 0.0
2017-Jul-22 04:01N 32°23' W 090°53'0 0.0
2017-Jul-22 03:30N 32°23' W 090°53'0 0.0
2017-Jul-22 03:00N 32°23' W 090°53'0 0.0
2017-Jul-22 02:30N 32°23' W 090°53'0 0.0
2017-Jul-22 02:00N 32°23' W 090°53'0 0.0
2017-Jul-22 01:30N 32°23' W 090°53'0 0.2
2017-Jul-22 01:00N 32°23' W 090°53'0 0.1
2017-Jul-22 00:30N 32°23' W 090°54'2 4.3
2017-Jul-22 00:01N 32°21' W 090°53'2 3.1
2017-Jul-21 23:30N 32°20' W 090°54'0 0.0
2017-Jul-21 23:00N 32°20' W 090°54'0 0.0
2017-Jul-21 22:30N 32°20' W 090°54'2 3.6
2017-Jul-21 22:00N 32°21' W 090°53'0 0.8
2017-Jul-21 21:30N 32°22' W 090°53'1 2.2
2017-Jul-21 21:00N 32°21' W 090°53'4 8.6
2017-Jul-21 20:30N 32°21' W 090°59'1 1.3
2017-Jul-21 20:00N 32°21' W 090°58'2 4.4
2017-Jul-21 19:30N 32°21' W 090°55'2 3.7
2017-Jul-21 19:00N 32°21' W 090°53'2 3.9
2017-Jul-21 18:30N 32°23' W 090°53'3 5.3
2017-Jul-21 18:00N 32°21' W 090°54'1 2.0
2017-Jul-21 17:30N 32°20' W 090°54'0 0.0
2017-Jul-21 17:00N 32°20' W 090°54'1 1.2
2017-Jul-21 16:30N 32°20' W 090°54'1 3.0
2017-Jul-21 16:00N 32°21' W 090°53'2 4.8
2017-Jul-21 15:30N 32°23' W 090°55'0 0.4
2017-Jul-21 15:00N 32°24' W 090°55'0 0.1
2017-Jul-21 14:30N 32°23' W 090°55'1 1.9
2017-Jul-21 14:00N 32°23' W 090°54'2 3.3
2017-Jul-21 13:30N 32°21' W 090°53'3 5.0
2017-Jul-21 13:00N 32°19' W 090°54'1 2.8
2017-Jul-21 12:30N 32°18' W 090°55'0 0.3
2017-Jul-21 12:00N 32°18' W 090°55'0 0.1
2017-Jul-21 11:30N 32°18' W 090°55'0 0.1
2017-Jul-21 11:00N 32°18' W 090°55'0 0.1
2017-Jul-21 10:30N 32°18' W 090°55'0 0.1
2017-Jul-21 10:00N 32°18' W 090°55'0 0.0
2017-Jul-21 09:30N 32°18' W 090°55'1 1.0
2017-Jul-21 09:00N 32°18' W 090°55'0 0.1
2017-Jul-21 08:30N 32°18' W 090°55'3 5.3
2017-Jul-21 08:00N 32°21' W 090°53'1 2.0
2017-Jul-21 07:30N 32°21' W 090°53'2 4.8
2017-Jul-21 07:00N 32°19' W 090°54'1 2.8
2017-Jul-21 06:30N 32°18' W 090°55'3 6.1
2017-Jul-21 06:00N 32°21' W 090°53'1 1.7
2017-Jul-21 05:30N 32°22' W 090°53'0 0.4
2017-Jul-21 05:00N 32°22' W 090°53'2 4.9
2017-Jul-21 04:30N 32°24' W 090°55'0 0.2
2017-Jul-21 04:00N 32°24' W 090°55'2 3.2
2017-Jul-21 03:30N 32°22' W 090°54'1 1.4
2017-Jul-21 03:00N 32°23' W 090°53'1 1.6
2017-Jul-21 02:30N 32°23' W 090°53'1 2.9
2017-Jul-21 02:00N 32°21' W 090°53'1 2.9
2017-Jul-21 01:30N 32°20' W 090°54'3 7.0
2017-Jul-21 01:00N 32°21' W 090°58'0 0.3
2017-Jul-21 00:30N 32°21' W 090°58'2 4.2
2017-Jul-21 00:00N 32°21' W 090°56'2 4.3
2017-Jul-20 23:30N 32°20' W 090°54'0 0.4
2017-Jul-20 23:00N 32°20' W 090°54'2 3.4
2017-Jul-20 22:30N 32°21' W 090°53'2 4.1
2017-Jul-20 22:00N 32°23' W 090°53'0 0.2
2017-Jul-20 21:30N 32°23' W 090°53'0 0.0
2017-Jul-20 21:00N 32°23' W 090°53'1 1.6
2017-Jul-20 20:30N 32°23' W 090°53'2 4.0
2017-Jul-20 20:00N 32°23' W 090°55'0 0.1
2017-Jul-20 19:30N 32°23' W 090°55'0 0.3
2017-Jul-20 19:00N 32°23' W 090°55'2 4.0
2017-Jul-20 18:30N 32°23' W 090°52'1 1.2
2017-Jul-20 18:00N 32°22' W 090°53'0 0.0
2017-Jul-20 17:30N 32°22' W 090°53'0 0.5
2017-Jul-20 17:00N 32°22' W 090°53'1 1.4
2017-Jul-20 16:30N 32°23' W 090°53'0 0.8
2017-Jul-20 16:00N 32°23' W 090°53'1 1.2
2017-Jul-20 15:30N 32°23' W 090°54'0 0.9
2017-Jul-20 15:00N 32°23' W 090°54'0 0.1
2017-Jul-20 14:00N 32°23' W 090°54'0 0.2
2017-Jul-20 13:30N 32°23' W 090°54'0 0.3
2017-Jul-20 13:00N 32°23' W 090°54'0 0.5
2017-Jul-20 12:30N 32°23' W 090°53'0 0.1
2017-Jul-20 12:00N 32°23' W 090°53'2 4.9
2017-Jul-20 11:30N 32°21' W 090°53'1 2.5
2017-Jul-20 11:00N 32°20' W 090°54'0 0.0
2017-Jul-20 10:31N 32°20' W 090°54'2 3.2
2017-Jul-20 10:00N 32°21' W 090°53'1 1.2
2017-Jul-20 09:31N 32°22' W 090°53'0 0.0
2017-Jul-20 09:00N 32°22' W 090°53'1 1.8
2017-Jul-20 08:31N 32°22' W 090°53'1 2.6
2017-Jul-20 08:01N 32°23' W 090°54'0 0.0
2017-Jul-20 07:30N 32°23' W 090°54'0 0.0
2017-Jul-20 07:01N 32°23' W 090°54'0 0.0
2017-Jul-20 06:31N 32°23' W 090°54'0 0.4
2017-Jul-20 06:00N 32°23' W 090°54'1 1.2
2017-Jul-20 05:30N 32°23' W 090°53'0 0.0
2017-Jul-20 05:01N 32°23' W 090°53'1 1.8
2017-Jul-20 04:31N 32°22' W 090°53'0 0.0
2017-Jul-20 04:01N 32°22' W 090°53'1 1.0
2017-Jul-20 03:30N 32°22' W 090°53'2 3.2
2017-Jul-20 03:01N 32°20' W 090°54'0 0.1
2017-Jul-20 02:30N 32°21' W 090°54'1 1.9
2017-Jul-20 02:01N 32°20' W 090°54'0 0.0
2017-Jul-20 01:30N 32°20' W 090°54'0 0.0
2017-Jul-20 01:00N 32°20' W 090°54'0 0.0
2017-Jul-20 00:31N 32°20' W 090°54'0 0.0
2017-Jul-20 00:00N 32°20' W 090°54'0 0.0
2017-Jul-19 23:31N 32°20' W 090°54'0 0.0
2017-Jul-19 23:01N 32°20' W 090°54'1 1.1
2017-Jul-19 22:31N 32°20' W 090°54'2 3.0
2017-Jul-19 22:01N 32°21' W 090°53'0 0.3
2017-Jul-19 21:31N 32°22' W 090°53'1 1.3
2017-Jul-19 21:01N 32°22' W 090°53'1 2.4
2017-Jul-19 20:30N 32°23' W 090°53'0 0.0
2017-Jul-19 20:01N 32°23' W 090°53'0 0.0
2017-Jul-19 19:31N 32°23' W 090°53'0 0.1
2017-Jul-19 19:01N 32°23' W 090°53'1 1.7
2017-Jul-19 18:31N 32°23' W 090°54'1 2.0
2017-Jul-19 18:00N 32°23' W 090°55'0 0.4
2017-Jul-19 17:31N 32°23' W 090°55'2 3.7
2017-Jul-19 17:00N 32°22' W 090°53'2 3.4
2017-Jul-19 16:31N 32°21' W 090°53'3 5.1
2017-Jul-19 16:00N 32°21' W 090°56'0 0.7
2017-Jul-19 15:30N 32°21' W 090°57'0 0.1
2017-Jul-19 15:00N 32°21' W 090°57'0 0.1
2017-Jul-19 14:31N 32°21' W 090°57'1 2.3
2017-Jul-19 14:00N 32°21' W 090°56'2 4.1
2017-Jul-19 13:30N 32°21' W 090°53'2 3.8
2017-Jul-19 13:00N 32°23' W 090°53'1 1.1
2017-Jul-19 12:30N 32°23' W 090°53'2 3.4
2017-Jul-19 12:01N 32°22' W 090°53'2 3.4
2017-Jul-19 11:31N 32°20' W 090°54'1 1.1
2017-Jul-19 11:00N 32°20' W 090°54'0 0.0
2017-Jul-19 10:31N 32°20' W 090°54'2 4.1
2017-Jul-19 10:01N 32°21' W 090°53'0 0.0
2017-Jul-19 09:30N 32°21' W 090°53'0 0.0
2017-Jul-19 09:00N 32°21' W 090°53'0 0.0
2017-Jul-19 08:30N 32°21' W 090°53'0 0.0
2017-Jul-19 08:01N 32°21' W 090°53'0 0.0
2017-Jul-19 07:31N 32°21' W 090°53'0 0.0
2017-Jul-19 07:00N 32°21' W 090°53'0 0.1
2017-Jul-19 06:30N 32°22' W 090°53'2 3.1
2017-Jul-19 06:00N 32°23' W 090°53'1 1.4
2017-Jul-19 05:31N 32°23' W 090°54'0 0.5
2017-Jul-19 05:00N 32°23' W 090°53'0 0.0
2017-Jul-19 04:30N 32°23' W 090°53'0 0.0
2017-Jul-19 04:01N 32°23' W 090°53'0 0.0
2017-Jul-19 03:30N 32°23' W 090°53'0 0.0
2017-Jul-19 03:00N 32°23' W 090°53'0 0.0
2017-Jul-19 02:31N 32°23' W 090°53'0 0.0
2017-Jul-19 02:00N 32°23' W 090°53'0 0.0
2017-Jul-19 01:30N 32°23' W 090°53'0 0.2
2017-Jul-19 01:00N 32°23' W 090°53'1 2.7
2017-Jul-19 00:31N 32°22' W 090°53'1 1.2
2017-Jul-19 00:01N 32°21' W 090°53'2 3.3
2017-Jul-18 23:30N 32°20' W 090°54'0 0.7
2017-Jul-18 23:00N 32°20' W 090°54'0 0.0
2017-Jul-18 22:30N 32°20' W 090°54'0 0.0
2017-Jul-18 22:01N 32°20' W 090°54'2 3.4
2017-Jul-18 21:30N 32°21' W 090°53'2 3.6
2017-Jul-18 21:01N 32°23' W 090°53'1 1.2
2017-Jul-18 20:30N 32°23' W 090°53'0 0.0
2017-Jul-18 20:00N 32°23' W 090°53'0 0.0
2017-Jul-18 19:31N 32°23' W 090°53'1 1.5
2017-Jul-18 19:00N 32°23' W 090°53'1 1.3
2017-Jul-18 18:30N 32°22' W 090°53'1 1.4
2017-Jul-18 18:01N 32°23' W 090°52'1 2.0
2017-Jul-18 17:31N 32°23' W 090°53'0 0.8
2017-Jul-18 17:01N 32°23' W 090°54'1 1.8
2017-Jul-18 16:30N 32°23' W 090°53'0 0.2
2017-Jul-18 16:01N 32°23' W 090°53'1 1.4
2017-Jul-18 15:30N 32°22' W 090°53'0 0.7
2017-Jul-18 15:00N 32°22' W 090°53'0 0.2
2017-Jul-18 14:00N 32°22' W 090°53'1 1.2
2017-Jul-18 13:30N 32°23' W 090°54'1 2.2
2017-Jul-18 13:01N 32°23' W 090°55'2 4.6
2017-Jul-18 12:30N 32°22' W 090°53'0 0.4
2017-Jul-18 12:00N 32°21' W 090°53'2 3.3
2017-Jul-18 11:31N 32°20' W 090°54'0 0.9
2017-Jul-18 11:00N 32°20' W 090°54'1 2.7
2017-Jul-18 10:30N 32°21' W 090°53'1 2.9
2017-Jul-18 10:00N 32°22' W 090°53'0 0.7
2017-Jul-18 09:30N 32°22' W 090°53'0 0.0
2017-Jul-18 09:00N 32°22' W 090°53'0 0.0
2017-Jul-18 08:30N 32°22' W 090°53'0 0.0
2017-Jul-18 08:00N 32°22' W 090°53'0 0.0
2017-Jul-18 07:30N 32°22' W 090°53'0 0.0
2017-Jul-18 07:00N 32°22' W 090°53'0 0.0
2017-Jul-18 06:30N 32°22' W 090°53'0 0.0
2017-Jul-18 06:00N 32°22' W 090°53'0 0.0
2017-Jul-18 05:30N 32°22' W 090°53'0 0.0
2017-Jul-18 05:00N 32°22' W 090°53'0 0.0
2017-Jul-18 04:30N 32°22' W 090°53'0 0.2
2017-Jul-18 04:00N 32°23' W 090°53'2 3.4
2017-Jul-18 03:30N 32°24' W 090°55'2 4.6
2017-Jul-18 03:00N 32°22' W 090°53'1 1.7
2017-Jul-18 02:31N 32°23' W 090°53'0 0.7
2017-Jul-18 02:00N 32°23' W 090°53'0 0.2
2017-Jul-18 01:31N 32°23' W 090°53'2 3.6
2017-Jul-18 01:00N 32°21' W 090°53'3 5.1
2017-Jul-18 00:30N 32°19' W 090°54'1 2.5
2017-Jul-18 00:01N 32°18' W 090°55'0 0.0
2017-Jul-17 23:31N 32°18' W 090°55'2 3.8
2017-Jul-17 23:00N 32°20' W 090°54'1 2.0
2017-Jul-17 22:30N 32°21' W 090°54'2 3.5
2017-Jul-17 22:00N 32°22' W 090°53'0 0.0
2017-Jul-17 21:31N 32°22' W 090°53'1 2.7
2017-Jul-17 21:01N 32°23' W 090°54'0 0.2
2017-Jul-17 20:30N 32°23' W 090°54'0 0.8
2017-Jul-17 20:00N 32°23' W 090°53'0 0.0
2017-Jul-17 19:30N 32°23' W 090°53'0 0.0
2017-Jul-17 19:01N 32°23' W 090°53'0 0.0
2017-Jul-17 18:30N 32°23' W 090°53'0 0.0
2017-Jul-17 18:01N 32°23' W 090°53'0 0.0
2017-Jul-17 17:30N 32°23' W 090°53'0 0.0
2017-Jul-17 17:00N 32°23' W 090°53'0 0.2
2017-Jul-17 16:30N 32°23' W 090°53'0 1.0
2017-Jul-17 16:00N 32°23' W 090°53'1 1.9
2017-Jul-17 15:31N 32°23' W 090°54'1 1.0
2017-Jul-17 15:00N 32°23' W 090°53'0 0.1
2017-Jul-17 14:30N 32°23' W 090°53'0 0.0
2017-Jul-17 14:00N 32°23' W 090°53'0 0.6
2017-Jul-17 13:30N 32°23' W 090°53'1 1.6
2017-Jul-17 13:00N 32°22' W 090°53'0 0.4
2017-Jul-17 12:31N 32°22' W 090°53'1 1.4
2017-Jul-17 12:01N 32°22' W 090°53'2 4.2
2017-Jul-17 11:30N 32°20' W 090°54'0 0.7
2017-Jul-17 11:00N 32°20' W 090°54'1 2.5
2017-Jul-17 10:30N 32°21' W 090°53'1 1.5
2017-Jul-17 10:00N 32°21' W 090°53'0 0.0
2017-Jul-17 09:30N 32°21' W 090°53'0 0.0
2017-Jul-17 09:00N 32°21' W 090°53'0 0.0
2017-Jul-17 08:30N 32°21' W 090°53'0 0.0
2017-Jul-17 08:00N 32°21' W 090°53'0 0.0
2017-Jul-17 07:30N 32°21' W 090°53'0 0.0
2017-Jul-17 07:00N 32°21' W 090°53'0 0.6
2017-Jul-17 06:30N 32°21' W 090°53'1 2.3
2017-Jul-17 06:00N 32°20' W 090°54'1 1.7
2017-Jul-17 05:30N 32°21' W 090°53'2 4.6
2017-Jul-17 05:00N 32°23' W 090°53'0 0.3
2017-Jul-17 04:30N 32°23' W 090°53'2 3.3
2017-Jul-17 04:00N 32°22' W 090°53'2 3.6
2017-Jul-17 03:30N 32°23' W 090°54'1 2.6
2017-Jul-17 03:00N 32°22' W 090°52'1 2.1
2017-Jul-17 02:30N 32°23' W 090°53'0 0.9
2017-Jul-17 02:00N 32°23' W 090°53'0 0.4
2017-Jul-17 01:30N 32°23' W 090°53'1 1.4
2017-Jul-17 01:00N 32°22' W 090°53'0 0.0
2017-Jul-17 00:30N 32°22' W 090°53'1 2.4
2017-Jul-17 00:00N 32°23' W 090°54'2 4.5
2017-Jul-16 23:30N 32°21' W 090°53'2 3.1
2017-Jul-16 23:00N 32°20' W 090°54'0 0.0
2017-Jul-16 22:30N 32°20' W 090°54'0 0.0
2017-Jul-16 22:00N 32°20' W 090°54'0 0.0
2017-Jul-16 21:30N 32°20' W 090°54'0 0.0
2017-Jul-16 21:00N 32°20' W 090°54'0 0.0
2017-Jul-16 20:30N 32°20' W 090°54'0 0.0
2017-Jul-16 20:01N 32°20' W 090°54'0 0.0
2017-Jul-16 19:31N 32°20' W 090°54'0 0.0
2017-Jul-16 19:01N 32°20' W 090°54'0 0.0
2017-Jul-16 18:31N 32°20' W 090°54'2 3.4
2017-Jul-16 18:01N 32°21' W 090°53'2 3.8
2017-Jul-16 17:31N 32°23' W 090°53'0 0.0
2017-Jul-16 17:01N 32°23' W 090°53'0 0.0
2017-Jul-16 16:30N 32°23' W 090°53'0 0.0
2017-Jul-16 16:01N 32°23' W 090°53'0 0.0
2017-Jul-16 15:31N 32°23' W 090°53'0 0.0
2017-Jul-16 15:01N 32°23' W 090°53'0 0.2
2017-Jul-16 14:31N 32°23' W 090°53'0 0.0
2017-Jul-16 14:01N 32°23' W 090°53'1 2.2
2017-Jul-16 13:31N 32°23' W 090°54'2 3.5
2017-Jul-16 13:01N 32°22' W 090°53'1 2.7
2017-Jul-16 12:31N 32°21' W 090°54'1 2.0
2017-Jul-16 12:01N 32°20' W 090°54'0 0.0
2017-Jul-16 11:30N 32°20' W 090°54'2 4.7
2017-Jul-16 11:00N 32°22' W 090°53'1 3.0
2017-Jul-16 10:31N 32°23' W 090°53'0 0.0
2017-Jul-16 10:01N 32°23' W 090°53'2 3.4
2017-Jul-16 09:31N 32°22' W 090°53'3 5.3
2017-Jul-16 09:01N 32°19' W 090°54'1 2.4
2017-Jul-16 08:31N 32°18' W 090°55'0 0.1
2017-Jul-16 08:00N 32°18' W 090°55'0 0.0
2017-Jul-16 07:30N 32°18' W 090°55'2 4.0
2017-Jul-16 07:00N 32°20' W 090°54'3 5.5
2017-Jul-16 06:30N 32°22' W 090°53'1 2.2
2017-Jul-16 06:01N 32°23' W 090°53'0 0.1
2017-Jul-16 05:30N 32°23' W 090°53'2 3.6
2017-Jul-16 05:00N 32°21' W 090°53'1 2.9
2017-Jul-16 04:31N 32°20' W 090°54'2 4.4
2017-Jul-16 04:00N 32°21' W 090°57'0 0.3
2017-Jul-16 03:30N 32°21' W 090°57'0 0.2
2017-Jul-16 03:00N 32°21' W 090°57'0 0.5
2017-Jul-16 02:31N 32°21' W 090°56'0 0.1
2017-Jul-16 02:00N 32°21' W 090°56'2 3.7
2017-Jul-16 01:30N 32°20' W 090°54'2 3.1
2017-Jul-16 01:01N 32°22' W 090°53'0 0.1
2017-Jul-16 00:30N 32°21' W 090°53'0 0.0
2017-Jul-16 00:01N 32°21' W 090°53'2 3.9
2017-Jul-15 23:31N 32°20' W 090°54'1 2.6
2017-Jul-15 23:00N 32°21' W 090°53'2 4.5
2017-Jul-15 22:30N 32°23' W 090°53'1 1.5
2017-Jul-15 22:00N 32°23' W 090°54'0 0.1
2017-Jul-15 21:30N 32°23' W 090°54'0 0.6
2017-Jul-15 21:00N 32°23' W 090°53'0 0.0
2017-Jul-15 20:30N 32°23' W 090°53'0 0.0
2017-Jul-15 20:00N 32°23' W 090°53'0 0.0
2017-Jul-15 19:30N 32°23' W 090°53'0 0.0
2017-Jul-15 19:00N 32°23' W 090°53'0 0.0
2017-Jul-15 18:30N 32°23' W 090°53'0 0.0
2017-Jul-15 18:00N 32°23' W 090°53'0 0.0
2017-Jul-15 17:30N 32°23' W 090°53'0 0.0
2017-Jul-15 17:00N 32°23' W 090°53'0 0.0
2017-Jul-15 16:30N 32°23' W 090°53'0 0.0
2017-Jul-15 16:00N 32°23' W 090°53'0 0.0
2017-Jul-15 15:30N 32°23' W 090°53'0 0.0
2017-Jul-15 15:00N 32°23' W 090°53'0 0.0
2017-Jul-15 14:00N 32°23' W 090°53'0 0.0
2017-Jul-15 13:30N 32°23' W 090°53'0 0.0
2017-Jul-15 13:00N 32°23' W 090°53'0 0.8
2017-Jul-15 12:30N 32°23' W 090°53'2 3.5
2017-Jul-15 12:00N 32°21' W 090°53'2 3.7
2017-Jul-15 11:30N 32°20' W 090°54'0 0.0
2017-Jul-15 11:00N 32°20' W 090°54'0 0.0
2017-Jul-15 10:30N 32°20' W 090°54'0 0.1
2017-Jul-15 10:00N 32°20' W 090°54'2 4.1
2017-Jul-15 09:30N 32°21' W 090°53'0 0.0
2017-Jul-15 09:00N 32°21' W 090°53'0 0.0
2017-Jul-15 08:30N 32°21' W 090°53'0 0.0
2017-Jul-15 08:00N 32°21' W 090°53'0 0.0
2017-Jul-15 07:30N 32°21' W 090°53'0 0.0
2017-Jul-15 07:00N 32°21' W 090°53'0 0.0
2017-Jul-15 06:30N 32°21' W 090°53'0 0.0
2017-Jul-15 06:00N 32°21' W 090°53'0 0.0
2017-Jul-15 05:30N 32°21' W 090°53'0 0.0
2017-Jul-15 05:00N 32°21' W 090°53'0 0.0
2017-Jul-15 04:30N 32°21' W 090°53'0 0.0
2017-Jul-15 04:00N 32°21' W 090°53'0 0.0
2017-Jul-15 03:30N 32°21' W 090°53'1 1.3
2017-Jul-15 03:00N 32°21' W 090°53'2 4.8
2017-Jul-15 02:30N 32°19' W 090°55'1 2.6
2017-Jul-15 02:00N 32°18' W 090°56'0 0.3
2017-Jul-15 01:30N 32°18' W 090°56'0 0.3
2017-Jul-15 01:00N 32°18' W 090°56'4 7.4
2017-Jul-15 00:30N 32°21' W 090°53'1 2.0
2017-Jul-15 00:00N 32°22' W 090°53'1 1.2
2017-Jul-14 23:30N 32°21' W 090°53'2 3.3
2017-Jul-14 23:00N 32°20' W 090°54'  

Dump ship's entire track history